createdAt,value
2022-12-01T00:00:25.462Z,9.88
2022-12-01T00:00:59.588Z,9.68
2022-12-01T00:01:30.961Z,10.23
2022-12-01T00:02:02.504Z,11.25
2022-12-01T00:02:33.967Z,10.80
2022-12-01T00:03:05.746Z,10.60
2022-12-01T00:03:37.498Z,10.50
2022-12-01T00:04:08.935Z,12.57
2022-12-01T00:04:40.319Z,9.70
2022-12-01T00:05:11.718Z,9.73
2022-12-01T00:05:43.163Z,10.32
2022-12-01T00:06:15.506Z,11.10
2022-12-01T00:06:46.854Z,10.27
2022-12-01T00:07:18.239Z,9.20
2022-12-01T00:07:49.716Z,9.18
2022-12-01T00:08:21.095Z,10.32
2022-12-01T00:08:52.791Z,9.50
2022-12-01T00:09:24.181Z,13.82
2022-12-01T00:09:55.655Z,10.15
2022-12-01T00:10:27.214Z,10.75
2022-12-01T00:11:09.403Z,10.35
2022-12-01T00:11:40.791Z,9.77
2022-12-01T00:12:12.202Z,10.65
2022-12-01T00:12:43.607Z,12.07
2022-12-01T00:13:15.040Z,10.52
2022-12-01T00:13:46.375Z,9.10
2022-12-01T00:14:17.778Z,10.65
2022-12-01T00:14:49.159Z,11.45
2022-12-01T00:15:20.992Z,9.43
2022-12-01T00:15:52.375Z,10.75
2022-12-01T00:16:23.887Z,12.27
2022-12-01T00:16:55.291Z,10.13
2022-12-01T00:17:29.789Z,8.93
2022-12-01T00:18:01.887Z,11.02
2022-12-01T00:18:33.315Z,9.38
2022-12-01T00:19:04.734Z,10.90
2022-12-01T00:19:36.136Z,11.98
2022-12-01T00:20:07.724Z,10.80
2022-12-01T00:20:39.108Z,9.85
2022-12-01T00:21:17.914Z,11.38
2022-12-01T00:21:49.252Z,12.18
2022-12-01T00:22:20.621Z,10.77
2022-12-01T00:22:51.975Z,10.95
2022-12-01T00:23:23.354Z,9.80
2022-12-01T00:23:56.081Z,9.65
2022-12-01T00:24:27.415Z,12.23
2022-12-01T00:24:58.762Z,11.00
2022-12-01T00:25:30.176Z,10.75
2022-12-01T00:26:04.835Z,10.23
2022-12-01T00:26:37.170Z,11.10
2022-12-01T00:27:08.595Z,10.65
2022-12-01T00:27:40.038Z,10.68
2022-12-01T00:28:11.410Z,10.43
2022-12-01T00:28:43.102Z,10.00
2022-12-01T00:29:14.491Z,10.15
2022-12-01T00:29:46.733Z,10.55
2022-12-01T00:30:19.510Z,11.73
2022-12-01T00:30:50.890Z,10.60
2022-12-01T00:31:22.650Z,11.23
2022-12-01T00:31:54.154Z,13.45
2022-12-01T00:32:25.625Z,12.50
2022-12-01T00:32:57.008Z,12.45
2022-12-01T00:33:28.393Z,10.82
2022-12-01T00:33:59.788Z,10.23
2022-12-01T00:34:31.169Z,11.07
2022-12-01T00:35:02.771Z,12.40
2022-12-01T00:35:34.195Z,12.15
2022-12-01T00:36:05.893Z,11.15
2022-12-01T00:36:37.228Z,12.40
2022-12-01T00:37:08.626Z,11.07
2022-12-01T00:37:39.999Z,9.55
2022-12-01T00:38:11.334Z,11.48
2022-12-01T00:38:42.862Z,9.85
2022-12-01T00:39:14.258Z,10.48
2022-12-01T00:39:46.075Z,12.35
2022-12-01T00:40:17.689Z,10.48
2022-12-01T00:40:49.080Z,10.80
2022-12-01T00:41:20.785Z,9.93
2022-12-01T00:41:52.213Z,11.20
2022-12-01T00:42:23.658Z,12.13
2022-12-01T00:42:55.069Z,11.63
2022-12-01T00:43:26.473Z,11.60
2022-12-01T00:43:57.860Z,11.27
2022-12-01T00:44:29.271Z,10.63
2022-12-01T00:45:00.682Z,10.30
2022-12-01T00:45:32.099Z,9.32
2022-12-01T00:46:03.764Z,9.85
2022-12-01T00:46:35.248Z,10.63
2022-12-01T00:47:06.644Z,10.95
2022-12-01T00:47:38.044Z,10.80
2022-12-01T00:48:09.562Z,9.10
2022-12-01T00:48:41.102Z,11.30
2022-12-01T00:49:12.840Z,11.07
2022-12-01T00:49:44.232Z,10.52
2022-12-01T00:50:15.596Z,10.77
2022-12-01T00:50:47.154Z,11.57
2022-12-01T00:51:18.505Z,11.13
2022-12-01T00:51:49.917Z,10.90
2022-12-01T00:52:21.375Z,13.02
2022-12-01T00:52:52.806Z,9.95
2022-12-01T00:53:24.289Z,9.10
2022-12-01T00:53:55.739Z,10.50
2022-12-01T00:54:27.218Z,10.45
2022-12-01T00:54:58.651Z,10.32
2022-12-01T00:55:30.040Z,10.70
2022-12-01T00:56:01.378Z,12.70
2022-12-01T00:56:32.761Z,10.18
2022-12-01T00:57:04.198Z,11.18
2022-12-01T00:57:35.641Z,9.93
2022-12-01T00:58:07.352Z,10.27
2022-12-01T00:58:38.713Z,11.05
2022-12-01T00:59:10.111Z,11.63
2022-12-01T00:59:41.435Z,12.45
2022-12-01T01:00:13.185Z,11.45
2022-12-01T01:00:44.578Z,9.75
2022-12-01T01:01:16.018Z,10.77
2022-12-01T01:01:47.485Z,10.75
2022-12-01T01:02:19.025Z,11.80
2022-12-01T01:02:50.587Z,9.32
2022-12-01T01:03:21.980Z,10.23
2022-12-01T01:03:53.346Z,11.60
2022-12-01T01:04:24.743Z,9.85
2022-12-01T01:04:56.166Z,11.32
2022-12-01T01:05:27.604Z,11.45
2022-12-01T01:06:06.623Z,12.27
2022-12-01T01:06:37.997Z,12.15
2022-12-01T01:07:09.389Z,12.02
2022-12-01T01:07:40.787Z,9.75
2022-12-01T01:08:13.753Z,11.77
2022-12-01T01:08:45.202Z,10.48
2022-12-01T01:09:17.026Z,11.88
2022-12-01T01:09:48.617Z,10.85
2022-12-01T01:10:20.122Z,10.68
2022-12-01T01:10:51.550Z,12.88
2022-12-01T01:11:22.953Z,11.68
2022-12-01T01:11:54.327Z,11.13
2022-12-01T01:12:26.927Z,11.30
2022-12-01T01:12:58.275Z,15.85
2022-12-01T01:13:30.330Z,12.43
2022-12-01T01:14:01.709Z,11.05
2022-12-01T01:14:33.203Z,12.73
2022-12-01T01:15:05.411Z,11.73
2022-12-01T01:15:36.947Z,12.00
2022-12-01T01:16:19.021Z,12.60
2022-12-01T01:16:50.514Z,10.93
2022-12-01T01:17:21.942Z,11.52
2022-12-01T01:17:53.351Z,12.80
2022-12-01T01:18:24.682Z,11.35
2022-12-01T01:18:56.064Z,12.38
2022-12-01T01:19:27.449Z,10.85
2022-12-01T01:19:58.941Z,12.85
2022-12-01T01:20:30.367Z,11.23
2022-12-01T01:21:03.049Z,10.43
2022-12-01T01:21:34.433Z,11.60
2022-12-01T01:22:05.877Z,10.93
2022-12-01T01:22:37.307Z,13.23
2022-12-01T01:23:08.742Z,11.43
2022-12-01T01:23:40.131Z,12.73
2022-12-01T01:24:11.520Z,10.02
2022-12-01T01:24:42.890Z,11.73
2022-12-01T01:25:14.299Z,10.85
2022-12-01T01:25:45.621Z,11.32
2022-12-01T01:26:27.463Z,11.70
2022-12-01T01:26:58.784Z,11.63
2022-12-01T01:27:30.171Z,10.65
2022-12-01T01:28:01.616Z,12.13
2022-12-01T01:28:32.997Z,11.55
2022-12-01T01:29:05.764Z,9.77
2022-12-01T01:29:37.408Z,10.73
2022-12-01T01:30:09.101Z,12.10
2022-12-01T01:30:40.492Z,10.32
2022-12-01T01:31:13.280Z,11.30
2022-12-01T01:31:44.743Z,11.55
2022-12-01T01:32:16.127Z,12.68
2022-12-01T01:32:47.587Z,9.88
2022-12-01T01:33:18.961Z,11.35
2022-12-01T01:33:50.381Z,11.60
2022-12-01T01:34:21.779Z,12.75
2022-12-01T01:34:53.169Z,11.98
2022-12-01T01:35:24.545Z,11.95
2022-12-01T01:35:58.342Z,12.75
2022-12-01T01:36:29.677Z,11.63
2022-12-01T01:37:01.134Z,12.93
2022-12-01T01:37:32.705Z,14.57
2022-12-01T01:38:04.147Z,15.00
2022-12-01T01:38:35.989Z,14.00
2022-12-01T01:39:07.430Z,16.95
2022-12-01T01:39:38.830Z,15.65
2022-12-01T01:40:10.465Z,14.70
2022-12-01T01:40:45.369Z,12.68
2022-12-01T01:41:17.268Z,13.43
2022-12-01T01:41:48.622Z,13.15
2022-12-01T01:42:20.500Z,13.55
2022-12-01T01:42:51.883Z,16.13
2022-12-01T01:43:42.936Z,15.35
2022-12-01T01:44:32.909Z,17.63
2022-12-01T01:45:04.455Z,18.23
2022-12-01T01:45:35.985Z,15.85
2022-12-01T01:46:07.750Z,17.95
2022-12-01T01:46:39.166Z,19.02
2022-12-01T01:47:10.956Z,19.88
2022-12-01T01:47:42.404Z,17.35
2022-12-01T01:48:13.842Z,16.92
2022-12-01T01:49:05.769Z,15.25
2022-12-01T01:49:37.140Z,18.60
2022-12-01T01:50:11.065Z,15.63
2022-12-01T01:50:42.520Z,17.67
2022-12-01T01:51:14.477Z,19.25
2022-12-01T01:51:50.323Z,18.33
2022-12-01T01:52:22.925Z,16.73
2022-12-01T01:53:06.707Z,19.52
2022-12-01T01:53:38.198Z,13.43
2022-12-01T01:54:10.981Z,10.90
2022-12-01T01:54:44.072Z,12.85
2022-12-01T01:55:15.831Z,12.63
2022-12-01T01:55:47.383Z,12.82
2022-12-01T01:56:19.059Z,11.75
2022-12-01T01:56:51.426Z,12.35
2022-12-01T01:57:25.171Z,11.65
2022-12-01T01:57:56.693Z,12.32
2022-12-01T01:58:28.149Z,13.60
2022-12-01T01:58:59.803Z,13.02
2022-12-01T01:59:33.023Z,13.68
2022-12-01T02:00:08.612Z,12.35
2022-12-01T02:00:41.522Z,12.70
2022-12-01T02:01:13.258Z,13.68
2022-12-01T02:01:45.671Z,14.43
2022-12-01T02:02:17.173Z,13.02
2022-12-01T02:02:49.929Z,11.45
2022-12-01T02:03:22.040Z,12.85
2022-12-01T02:03:53.739Z,13.23
2022-12-01T02:04:25.373Z,13.27
2022-12-01T02:05:01.464Z,11.93
2022-12-01T02:05:33.768Z,13.25
2022-12-01T02:06:06.302Z,11.75
2022-12-01T02:06:37.726Z,12.13
2022-12-01T02:07:09.840Z,13.52
2022-12-01T02:07:42.054Z,13.90
2022-12-01T02:08:13.482Z,13.80
2022-12-01T02:08:44.907Z,14.85
2022-12-01T02:09:16.295Z,11.45
2022-12-01T02:09:47.944Z,12.18
2022-12-01T02:10:20.710Z,11.70
2022-12-01T02:11:12.372Z,13.68
2022-12-01T02:12:22.459Z,11.85
2022-12-01T02:12:59.735Z,11.15
2022-12-01T02:13:42.241Z,11.23
2022-12-01T02:14:16.436Z,13.57
2022-12-01T02:14:47.823Z,13.07
2022-12-01T02:15:19.158Z,11.68
2022-12-01T02:16:03.956Z,11.77
2022-12-01T02:16:41.522Z,13.30
2022-12-01T02:17:12.928Z,10.73
2022-12-01T02:17:44.256Z,11.35
2022-12-01T02:18:38.278Z,11.43
2022-12-01T02:19:38.860Z,11.85
2022-12-01T02:20:28.301Z,10.45
2022-12-01T02:21:08.513Z,13.82
2022-12-01T02:21:48.807Z,11.93
2022-12-01T02:22:35.234Z,12.15
2022-12-01T02:23:26.906Z,15.77
2022-12-01T02:24:17.232Z,12.25
2022-12-01T02:24:57.674Z,14.00
2022-12-01T02:25:47.901Z,13.32
2022-12-01T02:26:37.877Z,11.57
2022-12-01T02:27:09.219Z,15.52
2022-12-01T02:27:58.364Z,14.63
2022-12-01T02:28:48.180Z,14.73
2022-12-01T02:29:49.630Z,14.02
2022-12-01T02:30:39.817Z,12.85
2022-12-01T02:31:16.810Z,13.98
2022-12-01T02:32:03.461Z,13.23
2022-12-01T02:32:46.977Z,14.77
2022-12-01T02:33:24.416Z,13.43
2022-12-01T02:33:58.514Z,14.18
2022-12-01T02:34:32.868Z,14.40
2022-12-01T02:35:12.747Z,11.63
2022-12-01T02:35:44.159Z,13.50
2022-12-01T02:36:18.291Z,13.57
2022-12-01T02:36:52.687Z,14.50
2022-12-01T02:37:28.858Z,16.02
2022-12-01T02:38:18.931Z,14.43
2022-12-01T02:39:05.760Z,11.88
2022-12-01T02:39:59.981Z,15.07
2022-12-01T02:40:37.977Z,13.97
2022-12-01T02:41:35.752Z,11.90
2022-12-01T02:42:07.071Z,12.98
2022-12-01T02:42:57.444Z,11.70
2022-12-01T02:43:35.438Z,12.25
2022-12-01T02:44:22.503Z,14.27
2022-12-01T02:44:54.398Z,12.02
2022-12-01T02:45:35.159Z,12.88
2022-12-01T02:46:13.725Z,11.50
2022-12-01T02:46:53.828Z,12.93
2022-12-01T02:47:25.282Z,11.57
2022-12-01T02:47:59.430Z,11.50
2022-12-01T02:48:34.447Z,13.50
2022-12-01T02:49:11.684Z,13.90
2022-12-01T02:49:46.991Z,11.02
2022-12-01T02:50:19.108Z,12.93
2022-12-01T02:50:51.877Z,14.38
2022-12-01T02:51:25.149Z,12.10
2022-12-01T02:51:57.256Z,12.55
2022-12-01T02:52:28.808Z,11.02
2022-12-01T02:53:01.050Z,13.48
2022-12-01T02:53:32.435Z,11.75
2022-12-01T02:54:05.170Z,12.63
2022-12-01T02:54:36.906Z,10.20
2022-12-01T02:55:08.560Z,10.68
2022-12-01T02:55:47.098Z,11.93
2022-12-01T02:56:21.102Z,11.45
2022-12-01T02:56:52.836Z,11.37
2022-12-01T02:57:24.278Z,10.85
2022-12-01T02:57:55.719Z,12.98
2022-12-01T02:58:27.152Z,12.07
2022-12-01T02:58:58.533Z,10.40
2022-12-01T02:59:29.921Z,15.68
2022-12-01T03:00:01.572Z,11.73
2022-12-01T03:00:32.999Z,11.38
2022-12-01T03:01:16.840Z,11.02
2022-12-01T03:02:07.043Z,12.63
2022-12-01T03:02:48.491Z,11.57
2022-12-01T03:03:19.840Z,11.10
2022-12-01T03:04:00.871Z,11.25
2022-12-01T03:04:38.458Z,11.85
2022-12-01T03:05:21.161Z,12.02
2022-12-01T03:05:58.492Z,10.98
2022-12-01T03:06:48.351Z,13.30
2022-12-01T03:07:37.607Z,12.32
2022-12-01T03:08:14.836Z,11.73
2022-12-01T03:09:04.705Z,11.85
2022-12-01T03:09:49.808Z,9.82
2022-12-01T03:10:36.556Z,11.73
2022-12-01T03:11:08.005Z,12.45
2022-12-01T03:11:46.764Z,12.32
2022-12-01T03:12:33.447Z,12.18
2022-12-01T03:13:13.931Z,12.93
2022-12-01T03:13:51.539Z,11.20
2022-12-01T03:14:28.753Z,11.13
2022-12-01T03:15:10.742Z,13.20
2022-12-01T03:15:48.476Z,12.85
2022-12-01T03:16:32.147Z,13.15
2022-12-01T03:17:08.662Z,10.95
2022-12-01T03:17:49.551Z,11.93
2022-12-01T03:18:27.102Z,14.82
2022-12-01T03:19:14.657Z,11.02
2022-12-01T03:19:48.804Z,11.25
2022-12-01T03:20:40.722Z,12.23
2022-12-01T03:21:26.194Z,11.93
2022-12-01T03:22:14.426Z,13.23
2022-12-01T03:22:55.598Z,12.47
2022-12-01T03:23:29.024Z,14.27
2022-12-01T03:24:26.878Z,13.10
2022-12-01T03:25:00.071Z,14.02
2022-12-01T03:25:31.923Z,11.55
2022-12-01T03:26:04.525Z,12.68
2022-12-01T03:26:36.844Z,12.85
2022-12-01T03:27:09.617Z,12.55
2022-12-01T03:28:00.680Z,13.13
2022-12-01T03:28:36.537Z,12.35
2022-12-01T03:29:16.013Z,12.93
2022-12-01T03:29:49.521Z,12.52
2022-12-01T03:30:21.186Z,12.38
2022-12-01T03:30:55.273Z,14.63
2022-12-01T03:31:30.789Z,12.50
2022-12-01T03:32:08.721Z,11.23
2022-12-01T03:32:55.263Z,12.07
2022-12-01T03:33:31.449Z,12.15
2022-12-01T03:34:26.082Z,12.00
2022-12-01T03:35:00.245Z,11.93
2022-12-01T03:35:39.057Z,11.73
2022-12-01T03:36:13.449Z,15.07
2022-12-01T03:36:56.508Z,10.82
2022-12-01T03:37:30.061Z,12.40
2022-12-01T03:38:23.707Z,11.23
2022-12-01T03:38:57.726Z,12.77
2022-12-01T03:39:31.188Z,13.75
2022-12-01T03:40:05.029Z,13.63
2022-12-01T03:40:36.989Z,12.75
2022-12-01T03:41:11.249Z,12.57
2022-12-01T03:41:44.317Z,11.70
2022-12-01T03:42:23.429Z,11.57
2022-12-01T03:43:03.485Z,11.38
2022-12-01T03:43:36.605Z,10.70
2022-12-01T03:44:20.318Z,13.07
2022-12-01T03:44:56.592Z,13.35
2022-12-01T03:45:33.892Z,12.43
2022-12-01T03:46:18.980Z,13.45
2022-12-01T03:46:55.403Z,11.80
2022-12-01T03:47:29.384Z,12.45
2022-12-01T03:48:00.902Z,10.38
2022-12-01T03:48:32.326Z,11.57
2022-12-01T03:49:03.784Z,11.90
2022-12-01T03:49:35.725Z,15.10
2022-12-01T03:50:08.176Z,12.65
2022-12-01T03:50:49.449Z,12.23
2022-12-01T03:51:31.187Z,13.23
2022-12-01T03:52:09.339Z,12.75
2022-12-01T03:53:00.825Z,13.35
2022-12-01T03:53:45.253Z,12.53
2022-12-01T03:54:21.506Z,12.35
2022-12-01T03:54:58.138Z,13.45
2022-12-01T03:55:30.539Z,12.20
2022-12-01T03:56:03.255Z,14.25
2022-12-01T03:56:37.889Z,11.52
2022-12-01T03:57:11.450Z,12.85
2022-12-01T03:57:45.963Z,10.85
2022-12-01T03:58:19.701Z,10.90
2022-12-01T03:58:53.965Z,12.63
2022-12-01T03:59:26.477Z,13.82
2022-12-01T03:59:57.913Z,14.50
2022-12-01T04:00:30.215Z,11.03
2022-12-01T04:01:02.537Z,12.90
2022-12-01T04:01:34.351Z,13.40
2022-12-01T04:02:07.089Z,14.60
2022-12-01T04:02:38.801Z,10.57
2022-12-01T04:03:16.239Z,13.05
2022-12-01T04:03:48.004Z,12.50
2022-12-01T04:04:19.432Z,15.50
2022-12-01T04:04:51.020Z,12.75
2022-12-01T04:05:25.311Z,11.82
2022-12-01T04:05:57.084Z,11.52
2022-12-01T04:06:28.464Z,12.45
2022-12-01T04:07:00.465Z,13.40
2022-12-01T04:07:31.952Z,14.65
2022-12-01T04:08:03.492Z,13.55
2022-12-01T04:08:35.083Z,11.68
2022-12-01T04:09:06.423Z,13.63
2022-12-01T04:09:37.815Z,13.40
2022-12-01T04:10:09.442Z,11.93
2022-12-01T04:10:40.831Z,11.67
2022-12-01T04:11:12.223Z,13.88
2022-12-01T04:11:43.554Z,12.88
2022-12-01T04:12:14.941Z,12.25
2022-12-01T04:12:46.391Z,13.15
2022-12-01T04:13:17.771Z,14.13
2022-12-01T04:13:49.151Z,13.67
2022-12-01T04:14:20.627Z,14.30
2022-12-01T04:14:51.989Z,13.88
2022-12-01T04:15:23.372Z,15.07
2022-12-01T04:15:55.149Z,12.40
2022-12-01T04:16:26.671Z,14.80
2022-12-01T04:16:58.137Z,13.98
2022-12-01T04:17:30.047Z,15.48
2022-12-01T04:18:01.364Z,17.60
2022-12-01T04:18:32.759Z,15.32
2022-12-01T04:19:04.189Z,14.00
2022-12-01T04:19:35.595Z,17.75
2022-12-01T04:20:07.324Z,14.20
2022-12-01T04:20:38.699Z,14.32
2022-12-01T04:21:10.093Z,13.60
2022-12-01T04:21:41.531Z,15.85
2022-12-01T04:22:12.970Z,18.70
2022-12-01T04:22:44.413Z,18.02
2022-12-01T04:23:15.794Z,16.58
2022-12-01T04:23:47.190Z,18.50
2022-12-01T04:24:18.604Z,17.65
2022-12-01T04:24:50.050Z,17.23
2022-12-01T04:25:21.390Z,17.95
2022-12-01T04:25:57.899Z,18.65
2022-12-01T04:26:30.359Z,17.65
2022-12-01T04:27:01.798Z,17.98
2022-12-01T04:27:33.589Z,17.35
2022-12-01T04:28:05.072Z,17.95
2022-12-01T04:28:36.471Z,19.38
2022-12-01T04:29:09.909Z,18.40
2022-12-01T04:29:41.282Z,18.85
2022-12-01T04:30:12.815Z,16.70
2022-12-01T04:30:44.203Z,18.17
2022-12-01T04:31:15.638Z,18.83
2022-12-01T04:31:47.119Z,18.80
2022-12-01T04:32:18.540Z,17.88
2022-12-01T04:32:50.216Z,18.33
2022-12-01T04:33:21.597Z,18.95
2022-12-01T04:33:54.418Z,18.40
2022-12-01T04:34:25.837Z,18.80
2022-12-01T04:34:57.197Z,18.98
2022-12-01T04:35:28.577Z,19.30
2022-12-01T04:36:00.222Z,18.58
2022-12-01T04:36:32.596Z,17.05
2022-12-01T04:37:04.590Z,20.73
2022-12-01T04:37:36.128Z,20.52
2022-12-01T04:38:07.517Z,16.50
2022-12-01T04:38:38.959Z,15.63
2022-12-01T04:39:10.341Z,15.00
2022-12-01T04:39:41.720Z,15.13
2022-12-01T04:40:13.148Z,15.70
2022-12-01T04:40:44.531Z,16.13
2022-12-01T04:41:16.179Z,17.42
2022-12-01T04:41:47.561Z,15.18
2022-12-01T04:42:18.898Z,13.73
2022-12-01T04:42:50.255Z,16.08
2022-12-01T04:43:21.630Z,15.40
2022-12-01T04:43:53.769Z,13.95
2022-12-01T04:44:27.813Z,13.88
2022-12-01T04:45:03.614Z,16.23
2022-12-01T04:45:35.052Z,14.63
2022-12-01T04:46:07.281Z,13.73
2022-12-01T04:46:38.789Z,15.40
2022-12-01T04:47:10.282Z,15.90
2022-12-01T04:47:41.626Z,14.70
2022-12-01T04:48:13.003Z,16.92
2022-12-01T04:48:44.396Z,13.50
2022-12-01T04:49:15.881Z,13.07
2022-12-01T04:49:47.580Z,14.52
2022-12-01T04:50:19.267Z,10.63
2022-12-01T04:50:50.647Z,13.05
2022-12-01T04:51:22.410Z,14.25
2022-12-01T04:51:53.826Z,13.60
2022-12-01T04:52:26.641Z,15.25
2022-12-01T04:52:59.781Z,11.75
2022-12-01T04:53:31.627Z,11.98
2022-12-01T04:54:03.070Z,13.35
2022-12-01T04:54:34.502Z,14.55
2022-12-01T04:55:06.097Z,13.32
2022-12-01T04:55:38.088Z,15.25
2022-12-01T04:56:09.438Z,15.95
2022-12-01T04:56:40.906Z,13.73
2022-12-01T04:57:12.303Z,13.70
2022-12-01T04:57:43.680Z,13.68
2022-12-01T04:58:15.060Z,11.52
2022-12-01T04:58:46.515Z,14.10
2022-12-01T04:59:18.038Z,13.25
2022-12-01T04:59:49.851Z,13.82
2022-12-01T05:00:21.441Z,15.03
2022-12-01T05:00:52.820Z,14.52
2022-12-01T05:01:24.398Z,14.13
2022-12-01T05:01:56.011Z,14.45
2022-12-01T05:02:27.514Z,13.90
2022-12-01T05:02:59.958Z,15.13
2022-12-01T05:03:31.356Z,12.55
2022-12-01T05:04:02.782Z,15.73
2022-12-01T05:04:34.169Z,15.35
2022-12-01T05:05:05.911Z,14.95
2022-12-01T05:05:37.253Z,14.55
2022-12-01T05:06:13.399Z,14.10
2022-12-01T05:06:44.830Z,15.00
2022-12-01T05:07:16.267Z,14.77
2022-12-01T05:07:47.743Z,14.03
2022-12-01T05:08:19.173Z,13.63
2022-12-01T05:08:50.992Z,12.40
2022-12-01T05:09:22.376Z,12.87
2022-12-01T05:09:53.715Z,15.18
2022-12-01T05:10:25.454Z,15.27
2022-12-01T05:10:56.841Z,14.18
2022-12-01T05:11:29.111Z,14.43
2022-12-01T05:12:00.750Z,12.45
2022-12-01T05:12:32.280Z,14.25
2022-12-01T05:13:04.547Z,14.70
2022-12-01T05:13:39.262Z,14.32
2022-12-01T05:14:10.681Z,13.30
2022-12-01T05:14:42.004Z,12.98
2022-12-01T05:15:13.340Z,14.23
2022-12-01T05:15:44.747Z,12.32
2022-12-01T05:16:29.891Z,14.32
2022-12-01T05:17:01.342Z,12.57
2022-12-01T05:17:36.759Z,13.32
2022-12-01T05:18:08.685Z,13.77
2022-12-01T05:18:40.448Z,12.18
2022-12-01T05:19:11.901Z,14.15
2022-12-01T05:19:43.327Z,14.45
2022-12-01T05:20:19.643Z,14.40
2022-12-01T05:20:51.802Z,14.70
2022-12-01T05:21:23.179Z,13.48
2022-12-01T05:21:54.560Z,12.85
2022-12-01T05:22:42.833Z,14.93
2022-12-01T05:23:17.386Z,11.00
2022-12-01T05:23:48.740Z,14.73
2022-12-01T05:24:20.803Z,13.15
2022-12-01T05:24:52.179Z,11.90
2022-12-01T05:25:23.565Z,12.60
2022-12-01T05:25:55.208Z,14.27
2022-12-01T05:26:26.594Z,15.50
2022-12-01T05:26:58.040Z,15.43
2022-12-01T05:27:29.415Z,15.63
2022-12-01T05:28:00.815Z,13.40
2022-12-01T05:28:32.253Z,12.07
2022-12-01T05:29:03.771Z,13.23
2022-12-01T05:29:35.117Z,12.55
2022-12-01T05:30:06.875Z,13.48
2022-12-01T05:30:38.256Z,13.98
2022-12-01T05:31:09.722Z,15.57
2022-12-01T05:31:41.443Z,14.10
2022-12-01T05:32:12.908Z,14.52
2022-12-01T05:32:44.309Z,13.77
2022-12-01T05:33:15.736Z,15.60
2022-12-01T05:33:47.128Z,14.82
2022-12-01T05:34:18.465Z,12.50
2022-12-01T05:34:49.856Z,15.73
2022-12-01T05:35:21.236Z,14.50
2022-12-01T05:35:53.130Z,13.13
2022-12-01T05:36:24.575Z,13.73
2022-12-01T05:36:56.006Z,13.10
2022-12-01T05:37:27.443Z,12.90
2022-12-01T05:38:01.913Z,14.77
2022-12-01T05:38:36.049Z,15.77
2022-12-01T05:39:07.492Z,14.48
2022-12-01T05:39:38.901Z,12.50
2022-12-01T05:40:10.740Z,13.90
2022-12-01T05:40:42.471Z,14.65
2022-12-01T05:41:14.633Z,13.60
2022-12-01T05:41:46.110Z,13.15
2022-12-01T05:42:17.497Z,14.18
2022-12-01T05:42:48.935Z,13.05
2022-12-01T05:43:25.400Z,14.27
2022-12-01T05:44:00.309Z,15.20
2022-12-01T05:44:31.693Z,13.85
2022-12-01T05:45:03.181Z,12.02
2022-12-01T05:45:34.929Z,14.70
2022-12-01T05:46:06.491Z,14.45
2022-12-01T05:46:37.993Z,13.73
2022-12-01T05:47:09.389Z,14.68
2022-12-01T05:47:40.777Z,13.50
2022-12-01T05:48:12.338Z,13.17
2022-12-01T05:48:43.758Z,14.30
2022-12-01T05:49:15.126Z,14.40
2022-12-01T05:49:46.769Z,12.82
2022-12-01T05:50:18.435Z,15.82
2022-12-01T05:50:49.809Z,12.45
2022-12-01T05:51:21.258Z,15.32
2022-12-01T05:51:52.642Z,13.70
2022-12-01T05:52:24.121Z,12.35
2022-12-01T05:52:55.701Z,15.20
2022-12-01T05:53:27.085Z,13.40
2022-12-01T05:54:01.814Z,11.73
2022-12-01T05:54:33.166Z,13.10
2022-12-01T05:55:05.280Z,13.52
2022-12-01T05:55:36.620Z,15.25
2022-12-01T05:56:08.486Z,14.07
2022-12-01T05:56:39.862Z,11.33
2022-12-01T05:57:11.252Z,12.65
2022-12-01T05:57:42.694Z,16.13
2022-12-01T05:58:14.036Z,13.27
2022-12-01T05:58:45.416Z,13.73
2022-12-01T05:59:16.869Z,13.18
2022-12-01T05:59:48.437Z,13.15
2022-12-01T06:00:20.288Z,15.43
2022-12-01T06:00:51.725Z,17.10
2022-12-01T06:01:23.139Z,15.30
2022-12-01T06:01:54.668Z,14.40
2022-12-01T06:02:26.100Z,14.85
2022-12-01T06:02:57.622Z,12.63
2022-12-01T06:03:29.014Z,15.80
2022-12-01T06:04:00.464Z,14.50
2022-12-01T06:04:31.882Z,13.80
2022-12-01T06:05:03.397Z,13.52
2022-12-01T06:05:34.812Z,13.70
2022-12-01T06:06:06.198Z,12.43
2022-12-01T06:06:37.552Z,12.77
2022-12-01T06:07:08.993Z,12.82
2022-12-01T06:07:40.507Z,13.13
2022-12-01T06:08:12.225Z,15.32
2022-12-01T06:08:43.644Z,14.85
2022-12-01T06:09:14.981Z,13.07
2022-12-01T06:09:46.541Z,15.23
2022-12-01T06:10:18.213Z,15.52
2022-12-01T06:10:49.658Z,14.60
2022-12-01T06:11:21.594Z,14.38
2022-12-01T06:11:53.000Z,15.20
2022-12-01T06:12:24.367Z,15.52
2022-12-01T06:12:55.754Z,16.48
2022-12-01T06:13:27.295Z,13.27
2022-12-01T06:13:58.628Z,13.73
2022-12-01T06:14:30.019Z,14.00
2022-12-01T06:15:01.806Z,14.27
2022-12-01T06:15:33.180Z,14.00
2022-12-01T06:16:05.901Z,12.88
2022-12-01T06:16:37.331Z,15.23
2022-12-01T06:17:08.784Z,15.65
2022-12-01T06:17:40.708Z,14.17
2022-12-01T06:18:12.230Z,16.48
2022-12-01T06:18:43.656Z,13.27
2022-12-01T06:19:15.000Z,14.68
2022-12-01T06:19:46.528Z,14.38
2022-12-01T06:20:18.170Z,13.68
2022-12-01T06:20:49.576Z,14.23
2022-12-01T06:21:21.057Z,15.43
2022-12-01T06:21:52.454Z,13.65
2022-12-01T06:22:23.894Z,13.75
2022-12-01T06:22:55.354Z,13.40
2022-12-01T06:23:30.389Z,13.97
2022-12-01T06:24:02.236Z,17.15
2022-12-01T06:24:33.623Z,13.05
2022-12-01T06:25:05.213Z,16.23
2022-12-01T06:25:36.604Z,12.73
2022-12-01T06:26:08.090Z,15.32
2022-12-01T06:26:39.419Z,14.55
2022-12-01T06:27:10.805Z,13.20
2022-12-01T06:27:42.210Z,15.43
2022-12-01T06:28:13.581Z,14.45
2022-12-01T06:28:44.972Z,14.93
2022-12-01T06:29:16.386Z,13.70
2022-12-01T06:29:47.905Z,13.70
2022-12-01T06:30:19.383Z,13.63
2022-12-01T06:30:50.817Z,15.73
2022-12-01T06:31:22.229Z,13.25
2022-12-01T06:31:53.718Z,14.20
2022-12-01T06:32:25.180Z,14.50
2022-12-01T06:32:56.622Z,14.50
2022-12-01T06:33:28.010Z,12.80
2022-12-01T06:33:59.339Z,16.67
2022-12-01T06:34:30.784Z,12.27
2022-12-01T06:35:02.647Z,14.02
2022-12-01T06:35:34.723Z,13.00
2022-12-01T06:36:06.575Z,14.77
2022-12-01T06:36:37.952Z,13.75
2022-12-01T06:37:09.969Z,15.50
2022-12-01T06:37:41.339Z,14.88
2022-12-01T06:38:12.689Z,13.93
2022-12-01T06:38:44.225Z,13.90
2022-12-01T06:39:16.089Z,15.68
2022-12-01T06:39:47.815Z,16.60
2022-12-01T06:40:19.396Z,13.40
2022-12-01T06:40:50.739Z,12.60
2022-12-01T06:41:22.069Z,13.52
2022-12-01T06:41:53.448Z,16.52
2022-12-01T06:42:24.844Z,13.23
2022-12-01T06:42:58.968Z,15.82
2022-12-01T06:43:30.334Z,15.05
2022-12-01T06:44:01.761Z,13.18
2022-12-01T06:44:33.157Z,16.17
2022-12-01T06:45:04.796Z,13.43
2022-12-01T06:45:36.153Z,13.07
2022-12-01T06:46:07.583Z,14.63
2022-12-01T06:46:39.340Z,15.45
2022-12-01T06:47:10.778Z,14.20
2022-12-01T06:47:42.237Z,11.73
2022-12-01T06:48:13.630Z,13.83
2022-12-01T06:48:47.573Z,14.05
2022-12-01T06:49:19.516Z,15.60
2022-12-01T06:49:51.507Z,14.07
2022-12-01T06:50:24.240Z,16.48
2022-12-01T06:50:59.337Z,14.63
2022-12-01T06:51:31.053Z,13.77
2022-12-01T06:52:02.448Z,15.70
2022-12-01T06:52:34.391Z,15.88
2022-12-01T06:53:05.736Z,14.33
2022-12-01T06:53:37.108Z,13.20
2022-12-01T06:54:10.731Z,13.75
2022-12-01T06:54:42.100Z,14.73
2022-12-01T06:55:13.864Z,17.85
2022-12-01T06:55:45.541Z,12.77
2022-12-01T06:56:17.016Z,13.43
2022-12-01T06:56:48.572Z,14.95
2022-12-01T06:57:20.255Z,14.20
2022-12-01T06:57:52.116Z,14.32
2022-12-01T06:58:23.605Z,12.73
2022-12-01T06:58:55.279Z,16.27
2022-12-01T06:59:26.809Z,13.27
2022-12-01T06:59:58.556Z,16.17
2022-12-01T07:00:30.573Z,13.90
2022-12-01T07:01:07.532Z,13.75
2022-12-01T07:01:39.056Z,15.75
2022-12-01T07:02:11.121Z,15.15
2022-12-01T07:02:42.768Z,16.17
2022-12-01T07:03:14.199Z,14.07
2022-12-01T07:03:49.380Z,16.50
2022-12-01T07:04:20.922Z,15.48
2022-12-01T07:04:52.396Z,17.35
2022-12-01T07:05:23.786Z,14.45
2022-12-01T07:05:58.994Z,16.23
2022-12-01T07:06:30.961Z,15.18
2022-12-01T07:07:03.983Z,13.70
2022-12-01T07:07:36.042Z,15.57
2022-12-01T07:08:07.476Z,13.32
2022-12-01T07:08:38.884Z,14.90
2022-12-01T07:09:10.287Z,13.75
2022-12-01T07:09:41.792Z,17.17
2022-12-01T07:10:13.269Z,14.37
2022-12-01T07:10:44.680Z,14.15
2022-12-01T07:11:16.150Z,16.10
2022-12-01T07:11:47.546Z,15.63
2022-12-01T07:12:18.873Z,17.42
2022-12-01T07:12:50.256Z,14.57